SKW5793 KIDA-KDEN
Flight info
| Callsign | SKW5793 |
|---|---|
| Flight time | 1h 12m |
| Altitude | 35000 |
| Route | SHEMA MJANE FLATI4 |
| Aircraft | E75L/M-SDE3GILORVW/S |
Departure
| Time | 2026-05-03 22:54 |
|---|---|
| Airport | Idaho Falls Regional Airport (KIDA) |
Arrival
| Time | 2026-05-04 00:06 |
|---|---|
| Airport | Denver International Airport (KDEN) |
| Time | Latitude | Longitude | Altitude | Speed | Heading |
|---|---|---|---|---|---|
| 2026-05-03 22:41 | 43.51550 | -112.06818 | 4736 ft | 0 kts | 133° |
| 2026-05-03 22:47 | 43.51558 | -112.06829 | 4736 ft | 2 kts | 133° |
| 2026-05-03 22:48 | 43.51568 | -112.06844 | 4736 ft | 2 kts | 133° |
| 2026-05-03 22:48 | 43.51579 | -112.06859 | 4736 ft | 2 kts | 133° |
| 2026-05-03 22:48 | 43.51585 | -112.06869 | 4736 ft | 1 kts | 134° |
| 2026-05-03 22:48 | 43.51590 | -112.06886 | 4736 ft | 2 kts | 83° |
| 2026-05-03 22:49 | 43.51585 | -112.06902 | 4736 ft | 0 kts | 43° |
| 2026-05-03 22:49 | 43.51580 | -112.06907 | 4736 ft | 1 kts | 36° |
| 2026-05-03 22:49 | 43.51578 | -112.06908 | 4736 ft | 0 kts | 37° |
| 2026-05-03 22:49 | 43.51579 | -112.06908 | 4736 ft | 0 kts | 37° |
| 2026-05-03 22:51 | 43.51587 | -112.06900 | 4736 ft | 2 kts | 37° |
| 2026-05-03 22:51 | 43.51607 | -112.06879 | 4736 ft | 5 kts | 38° |
| 2026-05-03 22:51 | 43.51644 | -112.06838 | 4736 ft | 8 kts | 38° |
| 2026-05-03 22:51 | 43.51702 | -112.06775 | 4736 ft | 12 kts | 38° |
| 2026-05-03 22:52 | 43.51780 | -112.06692 | 4736 ft | 16 kts | 38° |
| 2026-05-03 22:52 | 43.51880 | -112.06584 | 4735 ft | 19 kts | 38° |
| 2026-05-03 22:52 | 43.51987 | -112.06469 | 4735 ft | 19 kts | 38° |
| 2026-05-03 22:52 | 43.52094 | -112.06356 | 4735 ft | 13 kts | 34° |
| 2026-05-03 22:53 | 43.52158 | -112.06403 | 4735 ft | 12 kts | 294° |
| 2026-05-03 22:53 | 43.52134 | -112.06505 | 4735 ft | 12 kts | 217° |
| 2026-05-03 22:53 | 43.52034 | -112.06609 | 4735 ft | 36 kts | 219° |
| 2026-05-03 22:53 | 43.51675 | -112.06995 | 4737 ft | 92 kts | 218° |
| 2026-05-03 22:54 | 43.51043 | -112.07677 | 4744 ft | 138 kts | 217° |
| 2026-05-03 22:54 | 43.50178 | -112.08595 | 4793 ft | 167 kts | 220° |
| 2026-05-03 22:54 | 43.49245 | -112.09549 | 5182 ft | 171 kts | 219° |
| 2026-05-03 22:54 | 43.48357 | -112.10680 | 5622 ft | 176 kts | 227° |
| 2026-05-03 22:55 | 43.47454 | -112.11809 | 6175 ft | 178 kts | 224° |
| 2026-05-03 22:55 | 43.46424 | -112.12972 | 6311 ft | 207 kts | 221° |
| 2026-05-03 22:55 | 43.45198 | -112.14252 | 6453 ft | 235 kts | 219° |
| 2026-05-03 22:55 | 43.43802 | -112.15636 | 6774 ft | 254 kts | 217° |
| 2026-05-03 22:56 | 43.42363 | -112.16994 | 7492 ft | 255 kts | 210° |
| 2026-05-03 22:56 | 43.40647 | -112.17574 | 8158 ft | 261 kts | 185° |
| 2026-05-03 22:56 | 43.38752 | -112.17648 | 8439 ft | 281 kts | 182° |
| 2026-05-03 22:56 | 43.36762 | -112.17683 | 8841 ft | 294 kts | 182° |
| 2026-05-03 22:57 | 43.34685 | -112.17705 | 9444 ft | 299 kts | 182° |
| 2026-05-03 22:57 | 43.32618 | -112.17721 | 10136 ft | 300 kts | 182° |
| 2026-05-03 22:57 | 43.30545 | -112.17734 | 10780 ft | 302 kts | 182° |
| 2026-05-03 22:57 | 43.28428 | -112.17746 | 11300 ft | 309 kts | 182° |
| 2026-05-03 22:58 | 43.26264 | -112.17758 | 11757 ft | 317 kts | 182° |
| 2026-05-03 22:58 | 43.24008 | -112.17770 | 12214 ft | 326 kts | 182° |
| 2026-05-03 22:58 | 43.21734 | -112.17782 | 12730 ft | 332 kts | 182° |
| 2026-05-03 22:58 | 43.19423 | -112.17794 | 13344 ft | 334 kts | 182° |
| 2026-05-03 22:59 | 43.17072 | -112.17806 | 13981 ft | 336 kts | 182° |
| 2026-05-03 22:59 | 43.14751 | -112.17564 | 14556 ft | 341 kts | 165° |
| 2026-05-03 22:59 | 43.12671 | -112.15997 | 15114 ft | 347 kts | 137° |
| 2026-05-03 22:59 | 43.11169 | -112.13435 | 15680 ft | 350 kts | 126° |
| 2026-05-03 23:00 | 43.09752 | -112.10699 | 16264 ft | 353 kts | 126° |
| 2026-05-03 23:00 | 43.08332 | -112.07979 | 16834 ft | 355 kts | 126° |
| 2026-05-03 23:00 | 43.06903 | -112.05251 | 17392 ft | 357 kts | 126° |
| 2026-05-03 23:00 | 43.05444 | -112.02469 | 17948 ft | 360 kts | 126° |
| 2026-05-03 23:01 | 43.03972 | -111.99666 | 18477 ft | 363 kts | 126° |
| 2026-05-03 23:01 | 43.02505 | -111.96878 | 18979 ft | 367 kts | 126° |
| 2026-05-03 23:01 | 43.01002 | -111.94022 | 19474 ft | 371 kts | 126° |
| 2026-05-03 23:01 | 42.99502 | -111.91175 | 20004 ft | 374 kts | 126° |
| 2026-05-03 23:02 | 42.97973 | -111.88274 | 20523 ft | 376 kts | 126° |
| 2026-05-03 23:02 | 42.96447 | -111.85383 | 21012 ft | 379 kts | 126° |
| 2026-05-03 23:02 | 42.94906 | -111.82466 | 21525 ft | 382 kts | 126° |
| 2026-05-03 23:02 | 42.93346 | -111.79517 | 22012 ft | 385 kts | 126° |
| 2026-05-03 23:03 | 42.91787 | -111.76572 | 22486 ft | 388 kts | 126° |
| 2026-05-03 23:03 | 42.90196 | -111.73570 | 22951 ft | 391 kts | 126° |
| 2026-05-03 23:03 | 42.88603 | -111.70568 | 23392 ft | 394 kts | 126° |
| 2026-05-03 23:03 | 42.86980 | -111.67510 | 23838 ft | 397 kts | 126° |
| 2026-05-03 23:04 | 42.85445 | -111.64348 | 24300 ft | 399 kts | 120° |
| 2026-05-03 23:04 | 42.84077 | -111.61088 | 24719 ft | 403 kts | 120° |
| 2026-05-03 23:04 | 42.82686 | -111.57793 | 25123 ft | 406 kts | 120° |
| 2026-05-03 23:04 | 42.81265 | -111.54444 | 25514 ft | 409 kts | 120° |
| 2026-05-03 23:05 | 42.79834 | -111.51077 | 25900 ft | 412 kts | 120° |
| 2026-05-03 23:05 | 42.78388 | -111.47680 | 26302 ft | 415 kts | 120° |
| 2026-05-03 23:05 | 42.76947 | -111.44298 | 26689 ft | 418 kts | 120° |
| 2026-05-03 23:05 | 42.75479 | -111.40855 | 27083 ft | 421 kts | 120° |
| 2026-05-03 23:06 | 42.74018 | -111.37435 | 27470 ft | 423 kts | 120° |
| 2026-05-03 23:06 | 42.72527 | -111.33947 | 27857 ft | 426 kts | 121° |
| 2026-05-03 23:06 | 42.71035 | -111.30465 | 28239 ft | 428 kts | 121° |
| 2026-05-03 23:06 | 42.69531 | -111.26955 | 28605 ft | 430 kts | 121° |
| 2026-05-03 23:07 | 42.68015 | -111.23422 | 28958 ft | 433 kts | 121° |
| 2026-05-03 23:07 | 42.66462 | -111.19807 | 29333 ft | 435 kts | 121° |
| 2026-05-03 23:07 | 42.64920 | -111.16222 | 29659 ft | 439 kts | 122° |
| 2026-05-03 23:07 | 42.63345 | -111.12568 | 30000 ft | 441 kts | 121° |
| 2026-05-03 23:08 | 42.61763 | -111.08898 | 30344 ft | 444 kts | 121° |
| 2026-05-03 23:08 | 42.60170 | -111.05209 | 30652 ft | 447 kts | 121° |
| 2026-05-03 23:08 | 42.58601 | -111.01581 | 30973 ft | 449 kts | 122° |
| 2026-05-03 23:08 | 42.56963 | -110.97797 | 31291 ft | 452 kts | 122° |
| 2026-05-03 23:09 | 42.55343 | -110.94059 | 31612 ft | 454 kts | 122° |
| 2026-05-03 23:09 | 42.53738 | -110.90360 | 31906 ft | 456 kts | 122° |
| 2026-05-03 23:09 | 42.52117 | -110.86630 | 32250 ft | 457 kts | 122° |
| 2026-05-03 23:09 | 42.50481 | -110.82870 | 32642 ft | 457 kts | 122° |
| 2026-05-03 23:10 | 42.48871 | -110.79172 | 33074 ft | 456 kts | 122° |
| 2026-05-03 23:10 | 42.47242 | -110.75437 | 33480 ft | 455 kts | 122° |
| 2026-05-03 23:10 | 42.45628 | -110.71744 | 33883 ft | 454 kts | 122° |
| 2026-05-03 23:10 | 42.44005 | -110.68032 | 34254 ft | 454 kts | 122° |
| 2026-05-03 23:11 | 42.42357 | -110.64267 | 34622 ft | 454 kts | 122° |
| 2026-05-03 23:11 | 42.40730 | -110.60556 | 34945 ft | 454 kts | 122° |
| 2026-05-03 23:11 | 42.39142 | -110.56937 | 35130 ft | 447 kts | 122° |
| 2026-05-03 23:12 | 42.35874 | -110.49508 | 35173 ft | 463 kts | 122° |
| 2026-05-03 23:12 | 42.32518 | -110.41897 | 35174 ft | 477 kts | 122° |
| 2026-05-03 23:13 | 42.29083 | -110.34124 | 35160 ft | 480 kts | 122° |
| 2026-05-03 23:13 | 42.25647 | -110.26370 | 35145 ft | 480 kts | 123° |
| 2026-05-03 23:14 | 42.22213 | -110.18641 | 35138 ft | 479 kts | 122° |
| 2026-05-03 23:14 | 42.18769 | -110.10912 | 35135 ft | 480 kts | 122° |
| 2026-05-03 23:15 | 42.15335 | -110.03222 | 35134 ft | 482 kts | 122° |
| 2026-05-03 23:15 | 42.11868 | -109.95480 | 35129 ft | 480 kts | 122° |
| 2026-05-03 23:16 | 42.08427 | -109.87814 | 35129 ft | 481 kts | 123° |
| 2026-05-03 23:16 | 42.04973 | -109.80140 | 35127 ft | 482 kts | 123° |
| 2026-05-03 23:17 | 42.01509 | -109.72465 | 35127 ft | 482 kts | 122° |
| 2026-05-03 23:17 | 41.98031 | -109.64778 | 35135 ft | 482 kts | 122° |
| 2026-05-03 23:18 | 41.94550 | -109.57104 | 35134 ft | 483 kts | 122° |
| 2026-05-03 23:18 | 41.91056 | -109.49420 | 35134 ft | 483 kts | 122° |
| 2026-05-03 23:19 | 41.87532 | -109.41690 | 35136 ft | 483 kts | 122° |
| 2026-05-03 23:19 | 41.84015 | -109.33997 | 35145 ft | 483 kts | 123° |
| 2026-05-03 23:20 | 41.80489 | -109.26302 | 35152 ft | 484 kts | 123° |
| 2026-05-03 23:20 | 41.76974 | -109.18651 | 35147 ft | 484 kts | 123° |
| 2026-05-03 23:21 | 41.73430 | -109.10956 | 35154 ft | 485 kts | 123° |
| 2026-05-03 23:21 | 41.69864 | -109.03235 | 35150 ft | 486 kts | 123° |
| 2026-05-03 23:22 | 41.64542 | -108.91747 | 35151 ft | 485 kts | 123° |
| 2026-05-03 23:22 | 41.60992 | -108.84107 | 35153 ft | 485 kts | 123° |
| 2026-05-03 23:23 | 41.57452 | -108.76508 | 35157 ft | 485 kts | 123° |
| 2026-05-03 23:23 | 41.53865 | -108.68829 | 35159 ft | 486 kts | 123° |
| 2026-05-03 23:24 | 41.50303 | -108.61221 | 35151 ft | 485 kts | 123° |
| 2026-05-03 23:24 | 41.46740 | -108.53632 | 35154 ft | 484 kts | 123° |
| 2026-05-03 23:25 | 41.43163 | -108.46031 | 35157 ft | 484 kts | 123° |
| 2026-05-03 23:25 | 41.39592 | -108.38460 | 35155 ft | 484 kts | 123° |
| 2026-05-03 23:26 | 41.36544 | -108.30390 | 35151 ft | 487 kts | 109° |
| 2026-05-03 23:26 | 41.34550 | -108.21741 | 35145 ft | 487 kts | 108° |
| 2026-05-03 23:27 | 41.32465 | -108.13178 | 35142 ft | 487 kts | 109° |
| 2026-05-03 23:27 | 41.30358 | -108.04596 | 35133 ft | 488 kts | 109° |
| 2026-05-03 23:28 | 41.28249 | -107.96040 | 35137 ft | 487 kts | 109° |
| 2026-05-03 23:28 | 41.26127 | -107.87460 | 35134 ft | 488 kts | 109° |
| 2026-05-03 23:29 | 41.23998 | -107.78885 | 35140 ft | 489 kts | 109° |
| 2026-05-03 23:29 | 41.21866 | -107.70328 | 35152 ft | 488 kts | 109° |
| 2026-05-03 23:30 | 41.19729 | -107.61785 | 35148 ft | 488 kts | 109° |
| 2026-05-03 23:30 | 41.17601 | -107.53302 | 35144 ft | 488 kts | 109° |
| 2026-05-03 23:31 | 41.15457 | -107.44793 | 35161 ft | 487 kts | 109° |
| 2026-05-03 23:31 | 41.13296 | -107.36244 | 35158 ft | 488 kts | 109° |
| 2026-05-03 23:32 | 41.11115 | -107.27641 | 35165 ft | 489 kts | 109° |
| 2026-05-03 23:32 | 41.08929 | -107.19052 | 35192 ft | 489 kts | 109° |
| 2026-05-03 23:33 | 41.06679 | -107.10241 | 35214 ft | 489 kts | 110° |
| 2026-05-03 23:33 | 41.04503 | -107.01748 | 35232 ft | 489 kts | 110° |
| 2026-05-03 23:34 | 41.02299 | -106.93179 | 35224 ft | 490 kts | 110° |
| 2026-05-03 23:34 | 41.00212 | -106.84663 | 35222 ft | 490 kts | 103° |
| 2026-05-03 23:35 | 40.98876 | -106.75877 | 35227 ft | 487 kts | 109° |
| 2026-05-03 23:35 | 40.97625 | -106.71838 | 35212 ft | 472 kts | 118° |
| 2026-05-03 23:35 | 40.96156 | -106.67888 | 35079 ft | 483 kts | 114° |
| 2026-05-03 23:36 | 40.94944 | -106.63751 | 34716 ft | 485 kts | 111° |
| 2026-05-03 23:36 | 40.93791 | -106.59538 | 34354 ft | 484 kts | 110° |
| 2026-05-03 23:36 | 40.92669 | -106.55371 | 34148 ft | 486 kts | 110° |
| 2026-05-03 23:36 | 40.91527 | -106.51117 | 33780 ft | 486 kts | 110° |
| 2026-05-03 23:37 | 40.90400 | -106.46922 | 33434 ft | 488 kts | 110° |
| 2026-05-03 23:37 | 40.89255 | -106.42664 | 33089 ft | 488 kts | 110° |
| 2026-05-03 23:37 | 40.88126 | -106.38474 | 32741 ft | 487 kts | 110° |
| 2026-05-03 23:37 | 40.86982 | -106.34238 | 32397 ft | 489 kts | 110° |
| 2026-05-03 23:38 | 40.85841 | -106.30017 | 32028 ft | 485 kts | 110° |
| 2026-05-03 23:38 | 40.84679 | -106.25765 | 31659 ft | 482 kts | 112° |
| 2026-05-03 23:38 | 40.83310 | -106.21734 | 31264 ft | 479 kts | 116° |
| 2026-05-03 23:38 | 40.81900 | -106.17757 | 30810 ft | 476 kts | 116° |
| 2026-05-03 23:39 | 40.80515 | -106.13850 | 30399 ft | 474 kts | 116° |
| 2026-05-03 23:39 | 40.79117 | -106.09914 | 29858 ft | 471 kts | 116° |
| 2026-05-03 23:39 | 40.77742 | -106.06045 | 29312 ft | 466 kts | 116° |
| 2026-05-03 23:39 | 40.76362 | -106.02167 | 28760 ft | 462 kts | 116° |
| 2026-05-03 23:40 | 40.75014 | -105.98386 | 28273 ft | 457 kts | 116° |
| 2026-05-03 23:40 | 40.73666 | -105.94609 | 28330 ft | 459 kts | 115° |
| 2026-05-03 23:40 | 40.72325 | -105.90855 | 27936 ft | 455 kts | 115° |
| 2026-05-03 23:40 | 40.70972 | -105.87080 | 27418 ft | 451 kts | 115° |
| 2026-05-03 23:41 | 40.69646 | -105.83384 | 26919 ft | 448 kts | 115° |
| 2026-05-03 23:41 | 40.68308 | -105.79661 | 26415 ft | 446 kts | 115° |
| 2026-05-03 23:41 | 40.66992 | -105.76006 | 25922 ft | 442 kts | 115° |
| 2026-05-03 23:41 | 40.65688 | -105.72384 | 25430 ft | 438 kts | 115° |
| 2026-05-03 23:42 | 40.64382 | -105.68765 | 24930 ft | 434 kts | 115° |
| 2026-05-03 23:42 | 40.63110 | -105.65244 | 24438 ft | 423 kts | 115° |
| 2026-05-03 23:42 | 40.61866 | -105.61805 | 23992 ft | 413 kts | 115° |
| 2026-05-03 23:42 | 40.60649 | -105.58443 | 23558 ft | 409 kts | 115° |
| 2026-05-03 23:43 | 40.59414 | -105.55035 | 23134 ft | 408 kts | 115° |
| 2026-05-03 23:43 | 40.58201 | -105.51693 | 22722 ft | 406 kts | 115° |
| 2026-05-03 23:43 | 40.56995 | -105.48374 | 22308 ft | 403 kts | 115° |
| 2026-05-03 23:43 | 40.55788 | -105.45055 | 21881 ft | 400 kts | 115° |
| 2026-05-03 23:44 | 40.54594 | -105.41777 | 21475 ft | 394 kts | 115° |
| 2026-05-03 23:44 | 40.53434 | -105.38598 | 21068 ft | 383 kts | 115° |
| 2026-05-03 23:44 | 40.52296 | -105.35477 | 20647 ft | 372 kts | 115° |
| 2026-05-03 23:44 | 40.51192 | -105.32456 | 20289 ft | 361 kts | 116° |
| 2026-05-03 23:45 | 40.50117 | -105.29517 | 19970 ft | 355 kts | 116° |
| 2026-05-03 23:45 | 40.49057 | -105.26623 | 19723 ft | 356 kts | 116° |
| 2026-05-03 23:45 | 40.47980 | -105.23684 | 19502 ft | 357 kts | 116° |
| 2026-05-03 23:45 | 40.46912 | -105.20774 | 19271 ft | 356 kts | 116° |
| 2026-05-03 23:46 | 40.45602 | -105.18029 | 19034 ft | 355 kts | 137° |
| 2026-05-03 23:46 | 40.43624 | -105.15944 | 18897 ft | 374 kts | 146° |
| 2026-05-03 23:46 | 40.41481 | -105.13917 | 18718 ft | 388 kts | 146° |
| 2026-05-03 23:46 | 40.39256 | -105.11837 | 18496 ft | 390 kts | 147° |
| 2026-05-03 23:47 | 40.37064 | -105.09797 | 18268 ft | 388 kts | 146° |
| 2026-05-03 23:47 | 40.34856 | -105.07746 | 18035 ft | 387 kts | 146° |
| 2026-05-03 23:47 | 40.32673 | -105.05720 | 17805 ft | 384 kts | 146° |
| 2026-05-03 23:47 | 40.30510 | -105.03715 | 17574 ft | 382 kts | 146° |
| 2026-05-03 23:48 | 40.28326 | -105.01693 | 17345 ft | 383 kts | 146° |
| 2026-05-03 23:48 | 40.26173 | -104.99700 | 17118 ft | 381 kts | 146° |
| 2026-05-03 23:48 | 40.23996 | -104.97688 | 16886 ft | 381 kts | 146° |
| 2026-05-03 23:48 | 40.21847 | -104.95702 | 16664 ft | 379 kts | 146° |
| 2026-05-03 23:49 | 40.19700 | -104.93719 | 16438 ft | 380 kts | 146° |
| 2026-05-03 23:49 | 40.17567 | -104.91662 | 16199 ft | 372 kts | 141° |
| 2026-05-03 23:49 | 40.15624 | -104.89587 | 15927 ft | 356 kts | 141° |
| 2026-05-03 23:49 | 40.13722 | -104.87564 | 15602 ft | 344 kts | 141° |
| 2026-05-03 23:50 | 40.11911 | -104.85642 | 15287 ft | 334 kts | 141° |
| 2026-05-03 23:50 | 40.10720 | -104.84379 | 15081 ft | 331 kts | 141° |
| 2026-05-03 23:50 | 40.08339 | -104.81859 | 14693 ft | 331 kts | 141° |
| 2026-05-03 23:50 | 40.06557 | -104.79820 | 14391 ft | 331 kts | 129° |
| 2026-05-03 23:51 | 40.05067 | -104.77208 | 14168 ft | 360 kts | 125° |
| 2026-05-03 23:51 | 40.03556 | -104.74464 | 13893 ft | 367 kts | 124° |
| 2026-05-03 23:51 | 40.02054 | -104.71732 | 13606 ft | 365 kts | 125° |
| 2026-05-03 23:51 | 40.00588 | -104.69066 | 13320 ft | 362 kts | 125° |
| 2026-05-03 23:52 | 39.99113 | -104.66385 | 13022 ft | 360 kts | 124° |
| 2026-05-03 23:52 | 39.97704 | -104.63725 | 12718 ft | 358 kts | 117° |
| 2026-05-03 23:52 | 39.97030 | -104.60686 | 12460 ft | 348 kts | 92° |
| 2026-05-03 23:52 | 39.96951 | -104.57588 | 12183 ft | 332 kts | 88° |
| 2026-05-03 23:53 | 39.96916 | -104.54654 | 11892 ft | 329 kts | 88° |
| 2026-05-03 23:53 | 39.96881 | -104.51621 | 11633 ft | 339 kts | 89° |
| 2026-05-03 23:53 | 39.96841 | -104.48542 | 11260 ft | 335 kts | 89° |
| 2026-05-03 23:53 | 39.96796 | -104.45539 | 11049 ft | 333 kts | 89° |
| 2026-05-03 23:54 | 39.96396 | -104.42580 | 11057 ft | 340 kts | 114° |
| 2026-05-03 23:54 | 39.94977 | -104.40126 | 11086 ft | 333 kts | 142° |
| 2026-05-03 23:54 | 39.92977 | -104.38911 | 11060 ft | 309 kts | 172° |
| 2026-05-03 23:54 | 39.90892 | -104.38731 | 11033 ft | 288 kts | 180° |
| 2026-05-03 23:55 | 39.88936 | -104.38673 | 11006 ft | 270 kts | 180° |
| 2026-05-03 23:55 | 39.87097 | -104.38609 | 11007 ft | 259 kts | 180° |
| 2026-05-03 23:55 | 39.85293 | -104.38538 | 11029 ft | 260 kts | 180° |
| 2026-05-03 23:55 | 39.83441 | -104.38461 | 11035 ft | 265 kts | 180° |
| 2026-05-03 23:56 | 39.81611 | -104.38387 | 11035 ft | 264 kts | 180° |
| 2026-05-03 23:56 | 39.79759 | -104.38313 | 11035 ft | 264 kts | 180° |
| 2026-05-03 23:56 | 39.77933 | -104.38236 | 11034 ft | 264 kts | 180° |
| 2026-05-03 23:56 | 39.76088 | -104.38161 | 11035 ft | 262 kts | 180° |
| 2026-05-03 23:57 | 39.74266 | -104.38080 | 11037 ft | 263 kts | 180° |
| 2026-05-03 23:57 | 39.72434 | -104.37997 | 11040 ft | 261 kts | 180° |
| 2026-05-03 23:57 | 39.70621 | -104.37916 | 11041 ft | 262 kts | 180° |
| 2026-05-03 23:57 | 39.68802 | -104.37854 | 10946 ft | 265 kts | 184° |
| 2026-05-03 23:58 | 39.67076 | -104.38512 | 10760 ft | 257 kts | 214° |
| 2026-05-03 23:58 | 39.65575 | -104.39791 | 10548 ft | 257 kts | 217° |
| 2026-05-03 23:58 | 39.64115 | -104.41081 | 10314 ft | 255 kts | 217° |
| 2026-05-03 23:58 | 39.62683 | -104.42435 | 10065 ft | 251 kts | 230° |
| 2026-05-03 23:59 | 39.61945 | -104.44374 | 9877 ft | 241 kts | 263° |
| 2026-05-03 23:59 | 39.61753 | -104.46510 | 9678 ft | 240 kts | 267° |
| 2026-05-03 23:59 | 39.61610 | -104.48673 | 9441 ft | 239 kts | 267° |
| 2026-05-03 23:59 | 39.61475 | -104.50808 | 9473 ft | 236 kts | 267° |
| 2026-05-04 00:00 | 39.61348 | -104.52927 | 9397 ft | 239 kts | 267° |
| 2026-05-04 00:00 | 39.61215 | -104.55057 | 9236 ft | 237 kts | 267° |
| 2026-05-04 00:00 | 39.61079 | -104.57186 | 9093 ft | 237 kts | 268° |
| 2026-05-04 00:00 | 39.60948 | -104.59308 | 9077 ft | 235 kts | 267° |
| 2026-05-04 00:01 | 39.60813 | -104.61443 | 9075 ft | 236 kts | 268° |
| 2026-05-04 00:01 | 39.61134 | -104.63480 | 9092 ft | 234 kts | 304° |
| 2026-05-04 00:01 | 39.62373 | -104.64765 | 9113 ft | 236 kts | 341° |
| 2026-05-04 00:01 | 39.64004 | -104.65157 | 9094 ft | 237 kts | 355° |
| 2026-05-04 00:02 | 39.65621 | -104.64835 | 9084 ft | 231 kts | 8° |
| 2026-05-04 00:02 | 39.67140 | -104.64469 | 9012 ft | 216 kts | 6° |
| 2026-05-04 00:02 | 39.68563 | -104.64265 | 9019 ft | 187 kts | 358° |
| 2026-05-04 00:02 | 39.69761 | -104.64208 | 8910 ft | 163 kts | 357° |
| 2026-05-04 00:03 | 39.70892 | -104.64203 | 8592 ft | 158 kts | 355° |
| 2026-05-04 00:03 | 39.71943 | -104.64223 | 8402 ft | 155 kts | 355° |
| 2026-05-04 00:03 | 39.73027 | -104.64225 | 8059 ft | 153 kts | 357° |
| 2026-05-04 00:03 | 39.74081 | -104.64242 | 7647 ft | 153 kts | 355° |
| 2026-05-04 00:04 | 39.75143 | -104.64259 | 7324 ft | 149 kts | 356° |
| 2026-05-04 00:04 | 39.76166 | -104.64262 | 6987 ft | 150 kts | 356° |
| 2026-05-04 00:04 | 39.77198 | -104.64226 | 6696 ft | 148 kts | 359° |
| 2026-05-04 00:04 | 39.78210 | -104.64204 | 6492 ft | 145 kts | 357° |
| 2026-05-04 00:05 | 39.79234 | -104.64233 | 6308 ft | 145 kts | 356° |
| 2026-05-04 00:05 | 39.80267 | -104.64213 | 6058 ft | 151 kts | 359° |
| 2026-05-04 00:05 | 39.81314 | -104.64198 | 5856 ft | 152 kts | 356° |
| 2026-05-04 00:05 | 39.82362 | -104.64178 | 5603 ft | 147 kts | 358° |
| 2026-05-04 00:06 | 39.83368 | -104.64170 | 5384 ft | 142 kts | 357° |
| 2026-05-04 00:06 | 39.84236 | -104.64166 | 5356 ft | 100 kts | 4° |
| 2026-05-04 00:06 | 39.84788 | -104.64156 | 5349 ft | 66 kts | 1° |
| 2026-05-04 00:06 | 39.85159 | -104.64191 | 5345 ft | 39 kts | 341° |
| 2026-05-04 00:07 | 39.85389 | -104.64349 | 5349 ft | 36 kts | 347° |
| 2026-05-04 00:07 | 39.85628 | -104.64362 | 5347 ft | 28 kts | 335° |
| 2026-05-04 00:07 | 39.85666 | -104.64568 | 5354 ft | 23 kts | 272° |
| 2026-05-04 00:07 | 39.85667 | -104.64766 | 5360 ft | 20 kts | 267° |
| 2026-05-04 00:08 | 39.85669 | -104.64946 | 5365 ft | 19 kts | 272° |
| 2026-05-04 00:08 | 39.85670 | -104.65129 | 5371 ft | 21 kts | 270° |
| 2026-05-04 00:08 | 39.85671 | -104.65340 | 5377 ft | 24 kts | 271° |
| 2026-05-04 00:08 | 39.85673 | -104.65573 | 5384 ft | 27 kts | 271° |
| 2026-05-04 00:09 | 39.85675 | -104.65825 | 5392 ft | 26 kts | 270° |
| 2026-05-04 00:09 | 39.85677 | -104.66080 | 5389 ft | 28 kts | 270° |
| 2026-05-04 00:09 | 39.85678 | -104.66164 | 5389 ft | 0 kts | 270° |
| 2026-05-04 00:09 | 39.85678 | -104.66167 | 5389 ft | 1 kts | 269° |
| 2026-05-04 00:10 | 39.85676 | -104.66188 | 5389 ft | 3 kts | 255° |
| 2026-05-04 00:10 | 39.85655 | -104.66225 | 5389 ft | 6 kts | 212° |
| 2026-05-04 00:10 | 39.85602 | -104.66253 | 5390 ft | 11 kts | 219° |
| 2026-05-04 00:10 | 39.85585 | -104.66368 | 5386 ft | 16 kts | 272° |
| 2026-05-04 00:11 | 39.85585 | -104.66538 | 5381 ft | 21 kts | 270° |
| 2026-05-04 00:11 | 39.85585 | -104.66734 | 5380 ft | 21 kts | 267° |
| 2026-05-04 00:11 | 39.85638 | -104.66888 | 5380 ft | 19 kts | 340° |
| 2026-05-04 00:11 | 39.85745 | -104.66909 | 5380 ft | 7 kts | 359° |
| 2026-05-04 00:12 | 39.85777 | -104.66909 | 5380 ft | 4 kts | 360° |
| 2026-05-04 00:12 | 39.85805 | -104.66909 | 5380 ft | 2 kts | 0° |
| 2026-05-04 00:12 | 39.85809 | -104.66909 | 5380 ft | 0 kts | 360° |
| 2026-05-04 00:12 | 39.85810 | -104.66909 | 5380 ft | 0 kts | 360° |